DLH599 YSSY-YMML
Flight info
| Callsign | DLH599 |
|---|---|
| Flight time | 1h 32m |
| Altitude | 30000 |
| Route | GROOK1/16R WOL DCT CB DCT BOYSE |
| Aircraft | A359/H-SDE2E3GHIJ3J4J5LM1OR/LB1D1 |
Departure
| Time | 2026-05-08 03:34 |
|---|---|
| Airport | Sydney Kingsford Smith International Airport (YSSY) |
Arrival
| Time | 2026-05-08 05:07 |
|---|---|
| Airport | Melbourne Airport (YMML) |
| Time | Latitude | Longitude | Altitude | Speed | Heading |
|---|---|---|---|---|---|
| 2026-05-08 03:27 | -33.93508 | 151.17012 | 27 ft | 0 kts | 263° |
| 2026-05-08 03:28 | -33.93504 | 151.16967 | 27 ft | 9 kts | 286° |
| 2026-05-08 03:28 | -33.93458 | 151.16914 | 27 ft | 10 kts | 339° |
| 2026-05-08 03:29 | -33.93380 | 151.16891 | 27 ft | 14 kts | 353° |
| 2026-05-08 03:29 | -33.93249 | 151.16940 | 27 ft | 26 kts | 15° |
| 2026-05-08 03:29 | -33.93060 | 151.16914 | 27 ft | 28 kts | 353° |
| 2026-05-08 03:29 | -33.92972 | 151.17016 | 28 ft | 0 kts | 77° |
| 2026-05-08 03:31 | -33.92964 | 151.17065 | 30 ft | 11 kts | 81° |
| 2026-05-08 03:31 | -33.93131 | 151.17207 | 27 ft | 6 kts | 168° |
| 2026-05-08 03:32 | -33.93132 | 151.17208 | 27 ft | 0 kts | 168° |
| 2026-05-08 03:33 | -33.93171 | 151.17218 | 28 ft | 30 kts | 168° |
| 2026-05-08 03:34 | -33.93657 | 151.17342 | 25 ft | 110 kts | 168° |
| 2026-05-08 03:34 | -33.94619 | 151.17590 | 33 ft | 172 kts | 166° |
| 2026-05-08 03:34 | -33.95860 | 151.18018 | 397 ft | 197 kts | 160° |
| 2026-05-08 03:34 | -33.97212 | 151.18564 | 1034 ft | 213 kts | 153° |
| 2026-05-08 03:35 | -33.98682 | 151.19266 | 1194 ft | 245 kts | 164° |
| 2026-05-08 03:35 | -34.00429 | 151.19675 | 1700 ft | 264 kts | 167° |
| 2026-05-08 03:35 | -34.02381 | 151.19875 | 2103 ft | 287 kts | 187° |
| 2026-05-08 03:35 | -34.04353 | 151.19356 | 2979 ft | 286 kts | 197° |
| 2026-05-08 03:36 | -34.06200 | 151.19101 | 4075 ft | 251 kts | 178° |
| 2026-05-08 03:36 | -34.07872 | 151.19556 | 4827 ft | 244 kts | 168° |
| 2026-05-08 03:36 | -34.09521 | 151.20062 | 5596 ft | 246 kts | 169° |
| 2026-05-08 03:36 | -34.11176 | 151.20621 | 6497 ft | 248 kts | 165° |
| 2026-05-08 03:37 | -34.12840 | 151.21167 | 7094 ft | 251 kts | 170° |
| 2026-05-08 03:37 | -34.14534 | 151.21693 | 6859 ft | 249 kts | 168° |
| 2026-05-08 03:37 | -34.16197 | 151.22245 | 6921 ft | 249 kts | 169° |
| 2026-05-08 03:37 | -34.17898 | 151.22718 | 7053 ft | 249 kts | 175° |
| 2026-05-08 03:38 | -34.19579 | 151.22577 | 7002 ft | 242 kts | 198° |
| 2026-05-08 03:38 | -34.21107 | 151.21702 | 7180 ft | 244 kts | 210° |
| 2026-05-08 03:38 | -34.22438 | 151.20445 | 7235 ft | 244 kts | 221° |
| 2026-05-08 03:38 | -34.23574 | 151.18902 | 7321 ft | 246 kts | 229° |
| 2026-05-08 03:39 | -34.24578 | 151.17251 | 7368 ft | 248 kts | 230° |
| 2026-05-08 03:39 | -34.25629 | 151.15616 | 7188 ft | 245 kts | 226° |
| 2026-05-08 03:39 | -34.26790 | 151.14119 | 7038 ft | 243 kts | 220° |
| 2026-05-08 03:39 | -34.28001 | 151.12690 | 6870 ft | 244 kts | 223° |
| 2026-05-08 03:40 | -34.29111 | 151.11150 | 6938 ft | 244 kts | 229° |
| 2026-05-08 03:40 | -34.30139 | 151.09485 | 7017 ft | 244 kts | 228° |
| 2026-05-08 03:40 | -34.31194 | 151.07925 | 7232 ft | 240 kts | 226° |
| 2026-05-08 03:40 | -34.32295 | 151.06355 | 7805 ft | 248 kts | 227° |
| 2026-05-08 03:41 | -34.33424 | 151.04759 | 8892 ft | 251 kts | 227° |
| 2026-05-08 03:41 | -34.34570 | 151.03141 | 10149 ft | 256 kts | 227° |
| 2026-05-08 03:41 | -34.35760 | 151.01463 | 10970 ft | 271 kts | 227° |
| 2026-05-08 03:41 | -34.37025 | 150.99715 | 11965 ft | 278 kts | 226° |
| 2026-05-08 03:42 | -34.38425 | 150.98053 | 12824 ft | 291 kts | 222° |
| 2026-05-08 03:42 | -34.39975 | 150.96348 | 13534 ft | 307 kts | 221° |
| 2026-05-08 03:42 | -34.41582 | 150.94605 | 14494 ft | 313 kts | 221° |
| 2026-05-08 03:42 | -34.43213 | 150.92838 | 15532 ft | 316 kts | 221° |
| 2026-05-08 03:43 | -34.44855 | 150.91057 | 16571 ft | 318 kts | 221° |
| 2026-05-08 03:43 | -34.46517 | 150.89254 | 17611 ft | 321 kts | 221° |
| 2026-05-08 03:43 | -34.48166 | 150.87465 | 18581 ft | 324 kts | 221° |
| 2026-05-08 03:43 | -34.49858 | 150.85624 | 19408 ft | 329 kts | 222° |
| 2026-05-08 03:44 | -34.51568 | 150.83752 | 20185 ft | 333 kts | 222° |
| 2026-05-08 03:44 | -34.53304 | 150.81860 | 21005 ft | 337 kts | 222° |
| 2026-05-08 03:44 | -34.55003 | 150.79886 | 21805 ft | 340 kts | 226° |
| 2026-05-08 03:44 | -34.56474 | 150.77615 | 22575 ft | 345 kts | 234° |
| 2026-05-08 03:45 | -34.57761 | 150.75138 | 23334 ft | 349 kts | 236° |
| 2026-05-08 03:45 | -34.58997 | 150.72554 | 23771 ft | 359 kts | 238° |
| 2026-05-08 03:45 | -34.60224 | 150.69876 | 24229 ft | 366 kts | 238° |
| 2026-05-08 03:45 | -34.61443 | 150.67154 | 24893 ft | 367 kts | 238° |
| 2026-05-08 03:46 | -34.62664 | 150.64430 | 25527 ft | 369 kts | 239° |
| 2026-05-08 03:46 | -34.63907 | 150.61685 | 26170 ft | 371 kts | 238° |
| 2026-05-08 03:46 | -34.65165 | 150.58933 | 26783 ft | 374 kts | 238° |
| 2026-05-08 03:46 | -34.66421 | 150.56199 | 27390 ft | 377 kts | 238° |
| 2026-05-08 03:47 | -34.67704 | 150.53412 | 28014 ft | 379 kts | 238° |
| 2026-05-08 03:47 | -34.68998 | 150.50606 | 28598 ft | 382 kts | 238° |
| 2026-05-08 03:47 | -34.70301 | 150.47780 | 29139 ft | 385 kts | 238° |
| 2026-05-08 03:47 | -34.71615 | 150.44923 | 29642 ft | 389 kts | 238° |
| 2026-05-08 03:48 | -34.72946 | 150.42031 | 29987 ft | 396 kts | 238° |
| 2026-05-08 03:48 | -34.74313 | 150.39059 | 30088 ft | 409 kts | 239° |
| 2026-05-08 03:48 | -34.75723 | 150.35989 | 30093 ft | 423 kts | 239° |
| 2026-05-08 03:48 | -34.77174 | 150.32825 | 30088 ft | 435 kts | 239° |
| 2026-05-08 03:49 | -34.78667 | 150.29562 | 30097 ft | 446 kts | 239° |
| 2026-05-08 03:49 | -34.81725 | 150.22858 | 30094 ft | 456 kts | 238° |
| 2026-05-08 03:50 | -34.84774 | 150.16158 | 30075 ft | 453 kts | 239° |
| 2026-05-08 03:50 | -34.87836 | 150.09425 | 30103 ft | 455 kts | 239° |
| 2026-05-08 03:51 | -34.90907 | 150.02672 | 30107 ft | 455 kts | 239° |
| 2026-05-08 03:51 | -34.93970 | 149.95917 | 30116 ft | 455 kts | 238° |
| 2026-05-08 03:52 | -34.97028 | 149.89161 | 30116 ft | 455 kts | 238° |
| 2026-05-08 03:52 | -35.00082 | 149.82399 | 30120 ft | 456 kts | 238° |
| 2026-05-08 03:53 | -35.03131 | 149.75624 | 30114 ft | 456 kts | 239° |
| 2026-05-08 03:53 | -35.06180 | 149.68829 | 30132 ft | 456 kts | 239° |
| 2026-05-08 03:54 | -35.08714 | 149.63180 | 30123 ft | 456 kts | 239° |
| 2026-05-08 03:54 | -35.11767 | 149.56371 | 30139 ft | 458 kts | 239° |
| 2026-05-08 03:55 | -35.14825 | 149.49535 | 30114 ft | 459 kts | 239° |
| 2026-05-08 03:55 | -35.18380 | 149.41569 | 30099 ft | 459 kts | 239° |
| 2026-05-08 03:56 | -35.20921 | 149.35865 | 30119 ft | 459 kts | 239° |
| 2026-05-08 03:56 | -35.23975 | 149.29000 | 30103 ft | 460 kts | 239° |
| 2026-05-08 03:57 | -35.27035 | 149.22125 | 30098 ft | 460 kts | 239° |
| 2026-05-08 03:57 | -35.30576 | 149.15648 | 30098 ft | 458 kts | 232° |
| 2026-05-08 03:58 | -35.34337 | 149.09343 | 30102 ft | 458 kts | 232° |
| 2026-05-08 03:58 | -35.38105 | 149.03053 | 30092 ft | 458 kts | 232° |
| 2026-05-08 03:59 | -35.41905 | 148.96749 | 30124 ft | 460 kts | 230° |
| 2026-05-08 03:59 | -35.45880 | 148.90593 | 30138 ft | 460 kts | 230° |
| 2026-05-08 04:00 | -35.49848 | 148.84428 | 30131 ft | 460 kts | 230° |
| 2026-05-08 04:00 | -35.53781 | 148.78272 | 30138 ft | 462 kts | 230° |
| 2026-05-08 04:01 | -35.57742 | 148.72050 | 30136 ft | 463 kts | 230° |
| 2026-05-08 04:01 | -35.61705 | 148.65809 | 30149 ft | 464 kts | 230° |
| 2026-05-08 04:02 | -35.65681 | 148.59538 | 30138 ft | 464 kts | 230° |
| 2026-05-08 04:02 | -35.69650 | 148.53265 | 30165 ft | 464 kts | 230° |
| 2026-05-08 04:03 | -35.73617 | 148.46982 | 30156 ft | 465 kts | 230° |
| 2026-05-08 04:03 | -35.79575 | 148.37523 | 30182 ft | 466 kts | 230° |
| 2026-05-08 04:04 | -35.83524 | 148.31236 | 30185 ft | 467 kts | 230° |
| 2026-05-08 04:04 | -35.87499 | 148.24899 | 30194 ft | 467 kts | 230° |
| 2026-05-08 04:05 | -35.91471 | 148.18558 | 30174 ft | 467 kts | 230° |
| 2026-05-08 04:05 | -35.95448 | 148.12195 | 30204 ft | 468 kts | 230° |
| 2026-05-08 04:06 | -35.99423 | 148.05826 | 30199 ft | 468 kts | 230° |
| 2026-05-08 04:06 | -36.03393 | 147.99452 | 30194 ft | 468 kts | 230° |
| 2026-05-08 04:07 | -36.07363 | 147.93067 | 30184 ft | 468 kts | 230° |
| 2026-05-08 04:07 | -36.09340 | 147.89882 | 29916 ft | 466 kts | 230° |
| 2026-05-08 04:07 | -36.11284 | 147.86748 | 29689 ft | 466 kts | 230° |
| 2026-05-08 04:08 | -36.15231 | 147.80377 | 29541 ft | 465 kts | 230° |
| 2026-05-08 04:08 | -36.19107 | 147.74102 | 29211 ft | 445 kts | 230° |
| 2026-05-08 04:09 | -36.20958 | 147.71100 | 28928 ft | 432 kts | 230° |
| 2026-05-08 04:09 | -36.22755 | 147.68188 | 28652 ft | 419 kts | 230° |
| 2026-05-08 04:09 | -36.24510 | 147.65340 | 28391 ft | 412 kts | 230° |
| 2026-05-08 04:09 | -36.26251 | 147.62515 | 28102 ft | 412 kts | 230° |
| 2026-05-08 04:10 | -36.27985 | 147.59699 | 27836 ft | 411 kts | 230° |
| 2026-05-08 04:10 | -36.29715 | 147.56886 | 27572 ft | 410 kts | 230° |
| 2026-05-08 04:10 | -36.31441 | 147.54078 | 27314 ft | 408 kts | 230° |
| 2026-05-08 04:10 | -36.33160 | 147.51282 | 27057 ft | 407 kts | 230° |
| 2026-05-08 04:11 | -36.34878 | 147.48491 | 26803 ft | 405 kts | 230° |
| 2026-05-08 04:11 | -36.36587 | 147.45721 | 26564 ft | 404 kts | 230° |
| 2026-05-08 04:11 | -36.38269 | 147.42987 | 26315 ft | 403 kts | 230° |
| 2026-05-08 04:11 | -36.39958 | 147.40215 | 26071 ft | 401 kts | 230° |
| 2026-05-08 04:12 | -36.41637 | 147.37456 | 25789 ft | 400 kts | 230° |
| 2026-05-08 04:12 | -36.43310 | 147.34708 | 25557 ft | 398 kts | 230° |
| 2026-05-08 04:12 | -36.44979 | 147.31968 | 25318 ft | 397 kts | 230° |
| 2026-05-08 04:12 | -36.46643 | 147.29237 | 25071 ft | 396 kts | 230° |
| 2026-05-08 04:13 | -36.48304 | 147.26510 | 24837 ft | 394 kts | 230° |
| 2026-05-08 04:13 | -36.49959 | 147.23793 | 24603 ft | 394 kts | 230° |
| 2026-05-08 04:13 | -36.51610 | 147.21079 | 24376 ft | 393 kts | 231° |
| 2026-05-08 04:13 | -36.53257 | 147.18369 | 24144 ft | 392 kts | 231° |
| 2026-05-08 04:14 | -36.54900 | 147.15664 | 23919 ft | 391 kts | 231° |
| 2026-05-08 04:14 | -36.56534 | 147.12972 | 23675 ft | 390 kts | 231° |
| 2026-05-08 04:14 | -36.58166 | 147.10281 | 23368 ft | 389 kts | 231° |
| 2026-05-08 04:14 | -36.59793 | 147.07596 | 23107 ft | 387 kts | 230° |
| 2026-05-08 04:15 | -36.61409 | 147.04926 | 22837 ft | 386 kts | 231° |
| 2026-05-08 04:15 | -36.63025 | 147.02261 | 22577 ft | 384 kts | 230° |
| 2026-05-08 04:15 | -36.64632 | 146.99608 | 22324 ft | 383 kts | 231° |
| 2026-05-08 04:15 | -36.66235 | 146.96957 | 22069 ft | 382 kts | 231° |
| 2026-05-08 04:16 | -36.67830 | 146.94316 | 21805 ft | 381 kts | 231° |
| 2026-05-08 04:16 | -36.69421 | 146.91681 | 21549 ft | 380 kts | 231° |
| 2026-05-08 04:16 | -36.70986 | 146.89080 | 21297 ft | 379 kts | 231° |
| 2026-05-08 04:16 | -36.72561 | 146.86460 | 21047 ft | 377 kts | 231° |
| 2026-05-08 04:17 | -36.74133 | 146.83844 | 20787 ft | 376 kts | 231° |
| 2026-05-08 04:17 | -36.75699 | 146.81238 | 20536 ft | 375 kts | 231° |
| 2026-05-08 04:17 | -36.77257 | 146.78643 | 20295 ft | 373 kts | 231° |
| 2026-05-08 04:17 | -36.78809 | 146.76060 | 20052 ft | 372 kts | 231° |
| 2026-05-08 04:18 | -36.80362 | 146.73473 | 19812 ft | 371 kts | 231° |
| 2026-05-08 04:19 | -36.81119 | 146.72210 | 19699 ft | 371 kts | 231° |
| 2026-05-08 04:19 | -36.82662 | 146.69634 | 19455 ft | 370 kts | 231° |
| 2026-05-08 04:20 | -36.84206 | 146.67057 | 19221 ft | 369 kts | 231° |
| 2026-05-08 04:20 | -36.85741 | 146.64492 | 18983 ft | 368 kts | 232° |
| 2026-05-08 04:20 | -36.87267 | 146.61937 | 18760 ft | 367 kts | 232° |
| 2026-05-08 04:20 | -36.88788 | 146.59391 | 18527 ft | 366 kts | 232° |
| 2026-05-08 04:21 | -36.90308 | 146.56845 | 18271 ft | 365 kts | 232° |
| 2026-05-08 04:21 | -36.91802 | 146.54338 | 18016 ft | 364 kts | 231° |
| 2026-05-08 04:21 | -36.93313 | 146.51802 | 17749 ft | 364 kts | 231° |
| 2026-05-08 04:21 | -36.94821 | 146.49270 | 17491 ft | 362 kts | 231° |
| 2026-05-08 04:22 | -36.96322 | 146.46749 | 17236 ft | 361 kts | 231° |
| 2026-05-08 04:22 | -36.97816 | 146.44237 | 16973 ft | 358 kts | 231° |
| 2026-05-08 04:22 | -36.99300 | 146.41742 | 16729 ft | 357 kts | 231° |
| 2026-05-08 04:22 | -37.00782 | 146.39249 | 16479 ft | 356 kts | 231° |
| 2026-05-08 04:23 | -37.02253 | 146.36775 | 16228 ft | 354 kts | 231° |
| 2026-05-08 04:23 | -37.03719 | 146.34305 | 15969 ft | 353 kts | 231° |
| 2026-05-08 04:23 | -37.05177 | 146.31843 | 15749 ft | 350 kts | 230° |
| 2026-05-08 04:23 | -37.06620 | 146.29406 | 15478 ft | 348 kts | 230° |
| 2026-05-08 04:24 | -37.08058 | 146.26977 | 15228 ft | 346 kts | 230° |
| 2026-05-08 04:24 | -37.09493 | 146.24551 | 14987 ft | 345 kts | 230° |
| 2026-05-08 04:24 | -37.10918 | 146.22140 | 14755 ft | 344 kts | 230° |
| 2026-05-08 04:24 | -37.12336 | 146.19738 | 14529 ft | 342 kts | 230° |
| 2026-05-08 04:25 | -37.13732 | 146.17372 | 14289 ft | 341 kts | 230° |
| 2026-05-08 04:25 | -37.15159 | 146.14952 | 14054 ft | 340 kts | 230° |
| 2026-05-08 04:25 | -37.16542 | 146.12605 | 13800 ft | 338 kts | 230° |
| 2026-05-08 04:25 | -37.17956 | 146.10203 | 13549 ft | 338 kts | 230° |
| 2026-05-08 04:26 | -37.19344 | 146.07845 | 13292 ft | 335 kts | 230° |
| 2026-05-08 04:26 | -37.20708 | 146.05524 | 13039 ft | 333 kts | 230° |
| 2026-05-08 04:26 | -37.22094 | 146.03164 | 12760 ft | 332 kts | 230° |
| 2026-05-08 04:26 | -37.23446 | 146.00863 | 12505 ft | 331 kts | 230° |
| 2026-05-08 04:27 | -37.24805 | 145.98546 | 12249 ft | 328 kts | 230° |
| 2026-05-08 04:27 | -37.26157 | 145.96248 | 12005 ft | 327 kts | 230° |
| 2026-05-08 04:27 | -37.27503 | 145.93954 | 11756 ft | 326 kts | 230° |
| 2026-05-08 04:27 | -37.28849 | 145.91669 | 11509 ft | 324 kts | 229° |
| 2026-05-08 04:28 | -37.30193 | 145.89390 | 11285 ft | 323 kts | 229° |
| 2026-05-08 04:28 | -37.31524 | 145.87138 | 11042 ft | 320 kts | 229° |
| 2026-05-08 04:28 | -37.32840 | 145.84898 | 10793 ft | 319 kts | 229° |
| 2026-05-08 04:28 | -37.34145 | 145.82647 | 10554 ft | 317 kts | 229° |
| 2026-05-08 04:29 | -37.35435 | 145.80409 | 10311 ft | 316 kts | 230° |
| 2026-05-08 04:29 | -37.36728 | 145.78183 | 10046 ft | 315 kts | 229° |
| 2026-05-08 04:29 | -37.38023 | 145.75973 | 9830 ft | 311 kts | 229° |
| 2026-05-08 04:29 | -37.39240 | 145.73859 | 9570 ft | 284 kts | 229° |
| 2026-05-08 04:30 | -37.40347 | 145.71930 | 9288 ft | 260 kts | 229° |
| 2026-05-08 04:30 | -37.41365 | 145.70171 | 9095 ft | 250 kts | 229° |
| 2026-05-08 04:30 | -37.42403 | 145.68391 | 8977 ft | 252 kts | 229° |
| 2026-05-08 04:30 | -37.43444 | 145.66607 | 8959 ft | 253 kts | 229° |
| 2026-05-08 04:31 | -37.44429 | 145.64768 | 8955 ft | 255 kts | 236° |
| 2026-05-08 04:31 | -37.45007 | 145.62625 | 8956 ft | 266 kts | 255° |
| 2026-05-08 04:31 | -37.45091 | 145.60275 | 8956 ft | 271 kts | 263° |
| 2026-05-08 04:31 | -37.45063 | 145.57898 | 8950 ft | 272 kts | 263° |
| 2026-05-08 04:32 | -37.45024 | 145.55522 | 8951 ft | 271 kts | 263° |
| 2026-05-08 04:32 | -37.44982 | 145.53145 | 8932 ft | 270 kts | 263° |
| 2026-05-08 04:32 | -37.44945 | 145.50809 | 8671 ft | 267 kts | 263° |
| 2026-05-08 04:32 | -37.44915 | 145.48463 | 8474 ft | 268 kts | 264° |
| 2026-05-08 04:33 | -37.44886 | 145.46127 | 8241 ft | 265 kts | 263° |
| 2026-05-08 04:33 | -37.44859 | 145.43805 | 8022 ft | 265 kts | 264° |
| 2026-05-08 04:33 | -37.44831 | 145.41526 | 7790 ft | 264 kts | 264° |
| 2026-05-08 04:33 | -37.44804 | 145.39187 | 7582 ft | 262 kts | 264° |
| 2026-05-08 04:34 | -37.44776 | 145.36932 | 7340 ft | 262 kts | 264° |
| 2026-05-08 04:34 | -37.44751 | 145.34653 | 7113 ft | 258 kts | 264° |
| 2026-05-08 04:34 | -37.44720 | 145.32397 | 6899 ft | 259 kts | 264° |
| 2026-05-08 04:34 | -37.44689 | 145.30143 | 6749 ft | 254 kts | 264° |
| 2026-05-08 04:35 | -37.44658 | 145.27919 | 6582 ft | 252 kts | 265° |
| 2026-05-08 04:35 | -37.44623 | 145.25810 | 6420 ft | 230 kts | 264° |
| 2026-05-08 04:35 | -37.44594 | 145.23835 | 6286 ft | 224 kts | 263° |
| 2026-05-08 04:35 | -37.44571 | 145.21879 | 6152 ft | 223 kts | 263° |
| 2026-05-08 04:36 | -37.44548 | 145.19925 | 6033 ft | 223 kts | 263° |
| 2026-05-08 04:36 | -37.44522 | 145.17976 | 5910 ft | 223 kts | 263° |
| 2026-05-08 04:36 | -37.44497 | 145.16032 | 5795 ft | 223 kts | 263° |
| 2026-05-08 04:36 | -37.44471 | 145.14083 | 5550 ft | 222 kts | 264° |
| 2026-05-08 04:37 | -37.44442 | 145.12141 | 5348 ft | 222 kts | 264° |
| 2026-05-08 04:37 | -37.44413 | 145.10200 | 5216 ft | 222 kts | 264° |
| 2026-05-08 04:37 | -37.44385 | 145.08260 | 5088 ft | 221 kts | 264° |
| 2026-05-08 04:37 | -37.44355 | 145.06328 | 4989 ft | 219 kts | 264° |
| 2026-05-08 04:38 | -37.44326 | 145.04417 | 4973 ft | 218 kts | 264° |
| 2026-05-08 04:38 | -37.44296 | 145.02536 | 4975 ft | 216 kts | 264° |
| 2026-05-08 04:38 | -37.44265 | 145.00668 | 4963 ft | 210 kts | 264° |
| 2026-05-08 04:38 | -37.44231 | 144.98876 | 4854 ft | 199 kts | 264° |
| 2026-05-08 04:39 | -37.44203 | 144.97152 | 4755 ft | 196 kts | 263° |
| 2026-05-08 04:39 | -37.44180 | 144.95411 | 4630 ft | 196 kts | 263° |
| 2026-05-08 04:39 | -37.44258 | 144.93733 | 4525 ft | 192 kts | 255° |
| 2026-05-08 04:39 | -37.44473 | 144.92079 | 4399 ft | 190 kts | 253° |
| 2026-05-08 04:40 | -37.44711 | 144.90446 | 4271 ft | 190 kts | 253° |
| 2026-05-08 04:40 | -37.44948 | 144.88817 | 4163 ft | 188 kts | 252° |
| 2026-05-08 04:40 | -37.45179 | 144.87204 | 4068 ft | 188 kts | 253° |
| 2026-05-08 04:40 | -37.45405 | 144.85614 | 3968 ft | 178 kts | 253° |
| 2026-05-08 04:41 | -37.45611 | 144.84128 | 3880 ft | 167 kts | 253° |
| 2026-05-08 04:41 | -37.45812 | 144.82735 | 3802 ft | 155 kts | 251° |
| 2026-05-08 04:41 | -37.46166 | 144.81532 | 3686 ft | 139 kts | 234° |
| 2026-05-08 04:41 | -37.46796 | 144.80729 | 3524 ft | 123 kts | 207° |
| 2026-05-08 04:42 | -37.47649 | 144.80578 | 3447 ft | 128 kts | 185° |
| 2026-05-08 04:42 | -37.48244 | 144.80624 | 3352 ft | 130 kts | 181° |
| 2026-05-08 04:42 | -37.49147 | 144.80737 | 3239 ft | 131 kts | 180° |
| 2026-05-08 04:42 | -37.50051 | 144.80862 | 3126 ft | 132 kts | 180° |
| 2026-05-08 04:43 | -37.50971 | 144.80996 | 3015 ft | 134 kts | 179° |
| 2026-05-08 04:43 | -37.51909 | 144.81161 | 2987 ft | 136 kts | 179° |
| 2026-05-08 04:43 | -37.52846 | 144.81327 | 2961 ft | 136 kts | 179° |
| 2026-05-08 04:43 | -37.54082 | 144.81539 | 2755 ft | 136 kts | 180° |
| 2026-05-08 04:44 | -37.54714 | 144.81649 | 2603 ft | 136 kts | 179° |
| 2026-05-08 04:44 | -37.55651 | 144.81814 | 2435 ft | 136 kts | 179° |
| 2026-05-08 04:44 | -37.56586 | 144.81980 | 2250 ft | 136 kts | 179° |
| 2026-05-08 04:44 | -37.57530 | 144.82145 | 2060 ft | 137 kts | 179° |
| 2026-05-08 04:45 | -37.58478 | 144.82311 | 1873 ft | 136 kts | 177° |
| 2026-05-08 04:45 | -37.59413 | 144.82479 | 1682 ft | 137 kts | 179° |
| 2026-05-08 04:45 | -37.60381 | 144.82650 | 1487 ft | 144 kts | 177° |
| 2026-05-08 04:45 | -37.61365 | 144.82825 | 1288 ft | 141 kts | 178° |
| 2026-05-08 04:46 | -37.62329 | 144.82999 | 1125 ft | 145 kts | 178° |
| 2026-05-08 04:46 | -37.63316 | 144.83169 | 885 ft | 137 kts | 176° |
| 2026-05-08 04:46 | -37.64216 | 144.83331 | 684 ft | 123 kts | 176° |
| 2026-05-08 04:46 | -37.65032 | 144.83464 | 539 ft | 124 kts | 179° |
| 2026-05-08 04:47 | -37.65977 | 144.83615 | 430 ft | 144 kts | 172° |
| 2026-05-08 04:47 | -37.66910 | 144.83788 | 392 ft | 125 kts | 172° |
| 2026-05-08 04:47 | -37.67760 | 144.83995 | 371 ft | 131 kts | 180° |
| 2026-05-08 04:47 | -37.68636 | 144.84120 | 686 ft | 135 kts | 181° |
| 2026-05-08 04:48 | -37.69620 | 144.84228 | 947 ft | 148 kts | 179° |
| 2026-05-08 04:48 | -37.70674 | 144.84405 | 1204 ft | 156 kts | 176° |
| 2026-05-08 04:48 | -37.71761 | 144.84666 | 1547 ft | 160 kts | 174° |
| 2026-05-08 04:48 | -37.72853 | 144.84969 | 1948 ft | 161 kts | 173° |
| 2026-05-08 04:49 | -37.73938 | 144.85308 | 2335 ft | 161 kts | 173° |
| 2026-05-08 04:49 | -37.75018 | 144.85697 | 2691 ft | 164 kts | 168° |
| 2026-05-08 04:49 | -37.75987 | 144.86585 | 2870 ft | 186 kts | 130° |
| 2026-05-08 04:49 | -37.76349 | 144.88199 | 3190 ft | 200 kts | 94° |
| 2026-05-08 04:50 | -37.76176 | 144.89953 | 3430 ft | 209 kts | 84° |
| 2026-05-08 04:50 | -37.75846 | 144.91806 | 3632 ft | 223 kts | 82° |
| 2026-05-08 04:50 | -37.75471 | 144.93778 | 3921 ft | 231 kts | 82° |
| 2026-05-08 04:50 | -37.75096 | 144.95727 | 3992 ft | 232 kts | 82° |
| 2026-05-08 04:51 | -37.74721 | 144.97705 | 3991 ft | 231 kts | 82° |
| 2026-05-08 04:51 | -37.74322 | 144.99682 | 3988 ft | 232 kts | 78° |
| 2026-05-08 04:51 | -37.73900 | 145.01657 | 3994 ft | 233 kts | 81° |
| 2026-05-08 04:51 | -37.73531 | 145.03647 | 3986 ft | 233 kts | 82° |
| 2026-05-08 04:52 | -37.73150 | 145.05632 | 3983 ft | 233 kts | 77° |
| 2026-05-08 04:52 | -37.72293 | 145.07380 | 3982 ft | 238 kts | 43° |
| 2026-05-08 04:52 | -37.70846 | 145.08336 | 3981 ft | 235 kts | 8° |
| 2026-05-08 04:52 | -37.69243 | 145.08326 | 3988 ft | 230 kts | 345° |
| 2026-05-08 04:53 | -37.67679 | 145.07963 | 3982 ft | 228 kts | 342° |
| 2026-05-08 04:53 | -37.66146 | 145.07549 | 3984 ft | 229 kts | 342° |
| 2026-05-08 04:53 | -37.64588 | 145.07124 | 3984 ft | 229 kts | 342° |
| 2026-05-08 04:53 | -37.63011 | 145.06701 | 3982 ft | 228 kts | 342° |
| 2026-05-08 04:54 | -37.61483 | 145.06274 | 3981 ft | 227 kts | 341° |
| 2026-05-08 04:54 | -37.59928 | 145.05845 | 3981 ft | 230 kts | 342° |
| 2026-05-08 04:54 | -37.58367 | 145.05411 | 3982 ft | 229 kts | 342° |
| 2026-05-08 04:54 | -37.56806 | 145.04972 | 3982 ft | 230 kts | 342° |
| 2026-05-08 04:55 | -37.55237 | 145.04531 | 3981 ft | 231 kts | 342° |
| 2026-05-08 04:55 | -37.53670 | 145.04093 | 3979 ft | 231 kts | 342° |
| 2026-05-08 04:55 | -37.52102 | 145.03647 | 3982 ft | 231 kts | 342° |
| 2026-05-08 04:55 | -37.50537 | 145.03200 | 3978 ft | 231 kts | 342° |
| 2026-05-08 04:56 | -37.48994 | 145.02682 | 3975 ft | 227 kts | 331° |
| 2026-05-08 04:56 | -37.47695 | 145.01642 | 3980 ft | 219 kts | 314° |
| 2026-05-08 04:56 | -37.46528 | 145.00411 | 3973 ft | 219 kts | 310° |
| 2026-05-08 04:56 | -37.45365 | 144.99173 | 3976 ft | 220 kts | 311° |
| 2026-05-08 04:57 | -37.44194 | 144.97929 | 3975 ft | 220 kts | 311° |
| 2026-05-08 04:57 | -37.43038 | 144.96715 | 3967 ft | 209 kts | 312° |
| 2026-05-08 04:57 | -37.41949 | 144.95594 | 3962 ft | 195 kts | 311° |
| 2026-05-08 04:57 | -37.40929 | 144.94569 | 3950 ft | 180 kts | 312° |
| 2026-05-08 04:58 | -37.39978 | 144.93626 | 3960 ft | 172 kts | 312° |
| 2026-05-08 04:58 | -37.39082 | 144.92622 | 3970 ft | 171 kts | 298° |
| 2026-05-08 04:58 | -37.38621 | 144.91342 | 3983 ft | 153 kts | 266° |
| 2026-05-08 04:58 | -37.38832 | 144.90149 | 3964 ft | 131 kts | 231° |
| 2026-05-08 04:59 | -37.39393 | 144.89279 | 3852 ft | 127 kts | 225° |
| 2026-05-08 04:59 | -37.39980 | 144.88452 | 3709 ft | 126 kts | 226° |
| 2026-05-08 04:59 | -37.40562 | 144.87635 | 3605 ft | 125 kts | 225° |
| 2026-05-08 04:59 | -37.41142 | 144.86831 | 3455 ft | 123 kts | 224° |
| 2026-05-08 05:00 | -37.41720 | 144.86030 | 3330 ft | 124 kts | 225° |
| 2026-05-08 05:00 | -37.42305 | 144.85221 | 3193 ft | 126 kts | 225° |
| 2026-05-08 05:00 | -37.42905 | 144.84395 | 3072 ft | 129 kts | 224° |
| 2026-05-08 05:00 | -37.43508 | 144.83563 | 2994 ft | 128 kts | 224° |
| 2026-05-08 05:01 | -37.44110 | 144.82737 | 2981 ft | 127 kts | 225° |
| 2026-05-08 05:01 | -37.44711 | 144.81910 | 2975 ft | 128 kts | 225° |
| 2026-05-08 05:01 | -37.45314 | 144.81082 | 2984 ft | 128 kts | 225° |
| 2026-05-08 05:01 | -37.46025 | 144.80461 | 2971 ft | 131 kts | 194° |
| 2026-05-08 05:02 | -37.46951 | 144.80414 | 2977 ft | 132 kts | 182° |
| 2026-05-08 05:02 | -37.47858 | 144.80505 | 2982 ft | 133 kts | 181° |
| 2026-05-08 05:02 | -37.48778 | 144.80626 | 2985 ft | 133 kts | 180° |
| 2026-05-08 05:02 | -37.49695 | 144.80767 | 2985 ft | 132 kts | 178° |
| 2026-05-08 05:03 | -37.50609 | 144.80929 | 2988 ft | 133 kts | 178° |
| 2026-05-08 05:03 | -37.51527 | 144.81091 | 2986 ft | 134 kts | 179° |
| 2026-05-08 05:03 | -37.52460 | 144.81254 | 2985 ft | 135 kts | 179° |
| 2026-05-08 05:03 | -37.53396 | 144.81417 | 2901 ft | 135 kts | 179° |
| 2026-05-08 05:04 | -37.54323 | 144.81579 | 2711 ft | 135 kts | 180° |
| 2026-05-08 05:04 | -37.55252 | 144.81743 | 2523 ft | 135 kts | 179° |
| 2026-05-08 05:04 | -37.56180 | 144.81908 | 2336 ft | 135 kts | 179° |
| 2026-05-08 05:04 | -37.57111 | 144.82073 | 2150 ft | 135 kts | 179° |
| 2026-05-08 05:05 | -37.58049 | 144.82237 | 1960 ft | 137 kts | 179° |
| 2026-05-08 05:05 | -37.58983 | 144.82403 | 1775 ft | 134 kts | 177° |
| 2026-05-08 05:05 | -37.59911 | 144.82575 | 1508 ft | 137 kts | 178° |
| 2026-05-08 05:05 | -37.60867 | 144.82755 | 1313 ft | 139 kts | 178° |
| 2026-05-08 05:06 | -37.61815 | 144.82901 | 1119 ft | 135 kts | 180° |
| 2026-05-08 05:06 | -37.62785 | 144.83042 | 940 ft | 143 kts | 178° |
| 2026-05-08 05:06 | -37.63722 | 144.83217 | 744 ft | 131 kts | 176° |
| 2026-05-08 05:06 | -37.64610 | 144.83375 | 581 ft | 128 kts | 176° |
| 2026-05-08 05:07 | -37.65503 | 144.83536 | 454 ft | 130 kts | 174° |
| 2026-05-08 05:07 | -37.66309 | 144.83677 | 402 ft | 88 kts | 171° |
| 2026-05-08 05:07 | -37.66629 | 144.83738 | 392 ft | 20 kts | 171° |
| 2026-05-08 05:07 | -37.66799 | 144.83769 | 393 ft | 31 kts | 171° |
| 2026-05-08 05:08 | -37.67027 | 144.83861 | 387 ft | 37 kts | 150° |
| 2026-05-08 05:08 | -37.67161 | 144.83984 | 380 ft | 0 kts | 142° |
| 2026-05-08 05:08 | -37.67164 | 144.83986 | 380 ft | 2 kts | 141° |
| 2026-05-08 05:08 | -37.67191 | 144.84022 | 378 ft | 9 kts | 129° |
| 2026-05-08 05:09 | -37.67219 | 144.84122 | 375 ft | 15 kts | 96° |
| 2026-05-08 05:09 | -37.67211 | 144.84265 | 373 ft | 18 kts | 84° |
| 2026-05-08 05:09 | -37.67200 | 144.84405 | 370 ft | 14 kts | 89° |
| 2026-05-08 05:09 | -37.67206 | 144.84553 | 371 ft | 20 kts | 84° |
| 2026-05-08 05:10 | -37.67192 | 144.84687 | 367 ft | 11 kts | 82° |
| 2026-05-08 05:10 | -37.67146 | 144.84755 | 365 ft | 0 kts | 18° |
| 2026-05-08 05:10 | -37.67148 | 144.84762 | 364 ft | 0 kts | 9° |